Bee Ridge, Indiana
Current Conditions -  °F | °C
As of 6:28 AM on Friday 24 Oct 2014 (Local Time) from KHUF Reporting Station
Heavy Rain Heavy Rain  
Wind Chill: 47°   Ceiling: 2700
Heat Index: 47°   Visibility: 1.7mi
Dew Point: 44°   Wind: 0mph
Humidity: 90%   Direction: NA
Pressure: 30.11"   Gusts: NA
Location:  39.5158°N, 87.1262°W
Report Text: KHUF 241028Z 00000KT 1 3/4SM +RA BR BKN027 OVC034 08/07 A3011 RMK AO2 RAB18 P0009 T00830067
Loading
Personal Weather Stations






























Interactive Weather Map
Tropical Storm Tracking
New forecast layout! Learn more

10-Day Weather Forecast

Advertisements
Track Severe Weather on mobile